createdAt,value
2019-05-21T00:00:34.059Z,4.33
2019-05-21T00:03:00.260Z,4.83
2019-05-21T00:05:26.233Z,4.17
2019-05-21T00:07:52.170Z,4.27
2019-05-21T00:10:18.254Z,4.23
2019-05-21T00:12:44.316Z,4.77
2019-05-21T00:15:10.834Z,4.40
2019-05-21T00:17:36.884Z,4.20
2019-05-21T00:20:07.273Z,4.50
2019-05-21T00:22:33.438Z,4.10
2019-05-21T00:25:02.015Z,4.27
2019-05-21T00:27:28.104Z,4.00
2019-05-21T00:30:32.496Z,3.40
2019-05-21T00:33:36.265Z,3.20
2019-05-21T00:36:39.780Z,3.20
2019-05-21T00:39:43.241Z,2.97
2019-05-21T00:42:08.959Z,3.30
2019-05-21T00:44:40.921Z,3.00
2019-05-21T00:47:08.884Z,2.83
2019-05-21T00:49:34.895Z,2.83
2019-05-21T00:52:08.108Z,2.53
2019-05-21T00:54:29.995Z,2.60
2019-05-21T00:56:55.961Z,2.43
2019-05-21T00:59:21.938Z,2.80
2019-05-21T01:01:47.974Z,2.43
2019-05-21T01:04:14.044Z,2.60
2019-05-21T01:06:43.100Z,2.33
2019-05-21T01:09:09.089Z,2.10
2019-05-21T01:11:35.041Z,2.40
2019-05-21T01:14:01.383Z,2.00
2019-05-21T01:16:27.631Z,2.00
2019-05-21T01:18:53.694Z,2.10
2019-05-21T01:21:19.647Z,1.70
2019-05-21T01:23:45.647Z,1.83
2019-05-21T01:26:11.698Z,2.27
2019-05-21T01:28:37.683Z,2.50
2019-05-21T01:31:03.720Z,1.97
2019-05-21T01:33:29.716Z,1.73
2019-05-21T01:35:55.689Z,1.80
2019-05-21T01:38:22.000Z,2.20
2019-05-21T01:40:47.997Z,2.10
2019-05-21T01:43:14.061Z,1.83
2019-05-21T01:45:41.295Z,2.00
2019-05-21T01:48:07.323Z,1.90
2019-05-21T01:50:33.245Z,2.10
2019-05-21T01:52:59.421Z,2.00
2019-05-21T01:55:25.349Z,2.30
2019-05-21T01:57:51.431Z,2.10
2019-05-21T02:00:17.605Z,2.27
2019-05-21T02:02:43.882Z,2.30
2019-05-21T02:05:09.923Z,2.50
2019-05-21T02:07:35.894Z,2.40
2019-05-21T02:10:04.870Z,2.77
2019-05-21T02:12:31.056Z,2.70
2019-05-21T02:14:57.013Z,2.90
2019-05-21T02:17:23.320Z,3.13
2019-05-21T02:19:49.498Z,3.27
2019-05-21T02:22:15.800Z,3.90
2019-05-21T02:24:41.988Z,3.17
2019-05-21T02:27:08.107Z,3.60
2019-05-21T02:29:34.229Z,3.73
2019-05-21T02:32:00.205Z,3.60
2019-05-21T02:34:26.234Z,3.40
2019-05-21T02:36:52.206Z,3.90
2019-05-21T02:39:18.163Z,4.33
2019-05-21T02:41:44.515Z,3.80
2019-05-21T02:44:10.569Z,4.13
2019-05-21T02:46:36.548Z,4.00
2019-05-21T02:49:02.587Z,4.13
2019-05-21T02:51:28.693Z,4.40
2019-05-21T02:53:54.742Z,4.03
2019-05-21T02:56:21.931Z,4.43
2019-05-21T02:58:47.861Z,4.67
2019-05-21T03:01:17.469Z,4.10
2019-05-21T03:03:41.922Z,4.23
2019-05-21T03:06:14.183Z,4.10
2019-05-21T03:08:37.047Z,4.00
2019-05-21T03:11:03.232Z,4.63
2019-05-21T03:13:29.490Z,4.93
2019-05-21T03:15:56.866Z,4.27
2019-05-21T03:18:22.809Z,4.60
2019-05-21T03:20:48.938Z,4.37
2019-05-21T03:23:14.932Z,4.10
2019-05-21T03:25:41.086Z,4.10
2019-05-21T03:28:07.375Z,3.30
2019-05-21T03:30:33.573Z,3.37
2019-05-21T03:32:59.563Z,3.10
2019-05-21T03:35:25.625Z,3.50
2019-05-21T03:37:51.775Z,3.60
2019-05-21T03:40:17.943Z,3.73
2019-05-21T03:42:44.190Z,3.50
2019-05-21T03:45:10.529Z,3.90
2019-05-21T03:47:36.536Z,3.93
2019-05-21T03:50:04.116Z,3.77
2019-05-21T03:52:30.163Z,3.90
2019-05-21T03:54:56.256Z,4.80
2019-05-21T03:57:22.255Z,5.40
2019-05-21T03:59:48.205Z,6.33
2019-05-21T04:02:14.175Z,6.67
2019-05-21T04:04:40.171Z,7.40
2019-05-21T04:07:06.271Z,8.07
2019-05-21T04:09:32.545Z,9.40
2019-05-21T04:11:58.616Z,10.07
2019-05-21T04:14:24.699Z,10.43
2019-05-21T04:16:50.866Z,9.80
2019-05-21T04:19:16.823Z,10.63
2019-05-21T04:21:43.012Z,10.90
2019-05-21T04:24:09.738Z,10.20
2019-05-21T04:26:35.839Z,10.13
2019-05-21T04:29:01.901Z,9.70
2019-05-21T04:31:27.924Z,9.17
2019-05-21T04:33:54.011Z,9.70
2019-05-21T04:36:20.251Z,8.40
2019-05-21T04:38:46.237Z,9.77
2019-05-21T04:41:12.227Z,9.20
2019-05-21T04:43:38.290Z,9.37
2019-05-21T04:46:04.571Z,10.20
2019-05-21T04:48:30.935Z,11.07
2019-05-21T04:50:56.894Z,11.20
2019-05-21T04:53:22.954Z,12.33
2019-05-21T04:55:48.941Z,12.90
2019-05-21T04:58:14.884Z,12.80
2019-05-21T05:00:41.513Z,13.17
2019-05-21T05:03:07.558Z,13.23
2019-05-21T05:05:33.590Z,13.70
2019-05-21T05:07:59.810Z,13.33
2019-05-21T05:10:25.851Z,12.30
2019-05-21T05:12:52.119Z,11.87
2019-05-21T05:15:18.320Z,12.07
2019-05-21T05:17:44.435Z,12.33
2019-05-21T05:20:11.346Z,12.00
2019-05-21T05:22:37.419Z,11.93
2019-05-21T05:25:05.353Z,11.07
2019-05-21T05:27:31.344Z,11.03
2019-05-21T05:29:57.421Z,12.37
2019-05-21T05:32:23.386Z,13.60
2019-05-21T05:34:49.365Z,13.17
2019-05-21T05:37:15.446Z,12.80
2019-05-21T05:39:41.769Z,11.83
2019-05-21T05:42:07.736Z,11.27
2019-05-21T05:44:33.707Z,11.47
2019-05-21T05:46:59.805Z,11.93
2019-05-21T05:49:25.866Z,11.90
2019-05-21T05:51:52.037Z,11.87
2019-05-21T05:54:18.125Z,13.10
2019-05-21T05:56:44.194Z,13.23
2019-05-21T05:59:14.079Z,13.40
2019-05-21T06:01:38.745Z,13.63
2019-05-21T06:04:04.695Z,13.20
2019-05-21T06:06:31.209Z,13.17
2019-05-21T06:08:57.191Z,12.83
2019-05-21T06:11:23.141Z,12.33
2019-05-21T06:13:49.178Z,11.83
2019-05-21T06:16:15.331Z,11.10
2019-05-21T06:18:41.422Z,9.93
2019-05-21T06:21:07.591Z,9.43
2019-05-21T06:23:33.569Z,9.75
2019-05-21T06:25:59.501Z,9.50
2019-05-21T06:28:25.651Z,10.10
2019-05-21T06:30:51.600Z,10.25
2019-05-21T06:33:17.812Z,9.28
2019-05-21T06:35:44.815Z,9.18
2019-05-21T06:38:17.558Z,8.50
2019-05-21T06:40:39.007Z,8.80
2019-05-21T06:43:05.131Z,8.65
2019-05-21T06:45:31.342Z,8.43
2019-05-21T06:47:57.440Z,8.07
2019-05-21T06:50:23.436Z,8.47
2019-05-21T06:52:49.432Z,8.30
2019-05-21T06:55:16.684Z,9.30
2019-05-21T06:57:42.670Z,10.07
2019-05-21T07:00:10.087Z,10.33
2019-05-21T07:02:36.024Z,10.90
2019-05-21T07:05:02.559Z,9.97
2019-05-21T07:07:28.545Z,9.50
2019-05-21T07:09:55.615Z,10.37
2019-05-21T07:12:22.646Z,9.93
2019-05-21T07:14:48.729Z,9.90
2019-05-21T07:17:14.728Z,9.50
2019-05-21T07:19:40.808Z,9.70
2019-05-21T07:22:12.692Z,9.10
2019-05-21T07:24:34.672Z,10.07
2019-05-21T07:27:00.632Z,9.90
2019-05-21T07:29:26.664Z,9.50
2019-05-21T07:31:52.768Z,8.87
2019-05-21T07:34:18.777Z,9.30
2019-05-21T07:36:44.694Z,9.70
2019-05-21T07:39:10.684Z,9.53
2019-05-21T07:41:36.774Z,9.57
2019-05-21T07:44:04.321Z,10.23
2019-05-21T07:46:30.291Z,9.07
2019-05-21T07:48:56.263Z,9.57
2019-05-21T07:51:22.201Z,8.63
2019-05-21T07:53:48.195Z,7.87
2019-05-21T07:56:15.469Z,7.73
2019-05-21T07:58:41.454Z,7.77
2019-05-21T08:01:07.429Z,7.20
2019-05-21T08:03:33.664Z,7.60
2019-05-21T08:05:59.740Z,8.27
2019-05-21T08:08:25.871Z,7.73
2019-05-21T08:10:52.028Z,7.63
2019-05-21T08:13:18.127Z,7.67
2019-05-21T08:15:44.072Z,6.90
2019-05-21T08:18:10.067Z,7.20
2019-05-21T08:20:35.991Z,7.30
2019-05-21T08:23:01.931Z,5.83
2019-05-21T08:25:27.933Z,6.30
2019-05-21T08:27:54.111Z,5.90
2019-05-21T08:30:20.411Z,5.27
2019-05-21T08:32:46.363Z,5.37
2019-05-21T08:35:12.792Z,5.33
2019-05-21T08:37:38.983Z,5.50
2019-05-21T08:40:05.529Z,5.10
2019-05-21T08:42:31.581Z,4.80
2019-05-21T08:44:57.982Z,4.90
2019-05-21T08:47:24.208Z,5.10
2019-05-21T08:49:50.274Z,5.30
2019-05-21T08:52:16.208Z,5.00
2019-05-21T08:54:42.188Z,4.80
2019-05-21T08:57:08.447Z,4.77
2019-05-21T08:59:34.576Z,4.87
2019-05-21T09:02:00.530Z,4.97
2019-05-21T09:04:44.971Z,5.10
2019-05-21T09:06:55.407Z,5.12
2019-05-21T09:09:21.487Z,4.23
2019-05-21T09:11:47.552Z,5.03
2019-05-21T09:14:13.483Z,4.90
2019-05-21T09:16:39.744Z,4.35
2019-05-21T09:19:06.082Z,4.22
2019-05-21T09:21:32.012Z,4.40
2019-05-21T09:23:58.471Z,4.67
2019-05-21T09:26:24.560Z,4.37
2019-05-21T09:28:50.748Z,3.97
2019-05-21T09:31:16.919Z,3.30
2019-05-21T09:33:44.061Z,4.60
2019-05-21T09:36:10.008Z,4.40
2019-05-21T09:38:37.260Z,4.00
2019-05-21T09:41:03.628Z,3.23
2019-05-21T09:43:29.791Z,3.53
2019-05-21T09:45:55.730Z,4.10
2019-05-21T09:48:21.806Z,3.90
2019-05-21T09:50:47.846Z,4.20
2019-05-21T09:53:13.832Z,4.10
2019-05-21T09:55:39.809Z,4.12
2019-05-21T09:58:05.783Z,4.00
2019-05-21T10:00:32.089Z,4.30
2019-05-21T10:02:58.227Z,3.60
2019-05-21T10:05:24.183Z,3.60
2019-05-21T10:07:50.181Z,3.55
2019-05-21T10:10:17.323Z,3.62
2019-05-21T10:12:43.395Z,3.87
2019-05-21T10:15:09.846Z,3.92
2019-05-21T10:17:35.811Z,3.30
2019-05-21T10:20:04.210Z,2.92
2019-05-21T10:22:30.304Z,3.42
2019-05-21T10:24:56.233Z,3.20
2019-05-21T10:27:22.231Z,3.27
2019-05-21T10:29:48.231Z,3.00
2019-05-21T10:32:14.350Z,3.08
2019-05-21T10:34:40.312Z,3.50
2019-05-21T10:37:07.417Z,5.35
2019-05-21T10:39:33.540Z,4.50
2019-05-21T10:41:59.556Z,4.42
2019-05-21T10:44:25.481Z,4.40
2019-05-21T10:46:51.559Z,4.17
2019-05-21T10:49:17.588Z,4.70
2019-05-21T10:51:43.557Z,4.92
2019-05-21T10:54:09.578Z,4.60
2019-05-21T10:56:47.239Z,4.20
2019-05-21T10:59:04.162Z,4.67
2019-05-21T11:01:30.297Z,4.30
2019-05-21T11:03:56.435Z,4.17
2019-05-21T11:06:22.662Z,4.22
2019-05-21T11:08:48.674Z,4.47
2019-05-21T11:11:14.942Z,4.40
2019-05-21T11:13:41.121Z,4.22
2019-05-21T11:16:07.070Z,4.33
2019-05-21T11:18:33.317Z,4.17
2019-05-21T11:20:59.319Z,4.62
2019-05-21T11:23:25.244Z,4.42
2019-05-21T11:25:51.228Z,5.22
2019-05-21T11:28:18.528Z,5.67
2019-05-21T11:30:44.833Z,5.97
2019-05-21T11:33:10.977Z,5.28
2019-05-21T11:35:36.925Z,6.83
2019-05-21T11:38:03.357Z,6.15
2019-05-21T11:40:29.520Z,6.25
2019-05-21T11:42:55.482Z,8.08
2019-05-21T11:45:31.585Z,7.55
2019-05-21T11:47:50.331Z,7.67
2019-05-21T11:50:16.621Z,7.78
2019-05-21T11:52:43.681Z,6.85
2019-05-21T11:55:10.162Z,6.80
2019-05-21T11:57:36.283Z,7.20
2019-05-21T12:00:06.063Z,6.60
2019-05-21T12:02:33.465Z,7.03
2019-05-21T12:05:00.729Z,6.75
2019-05-21T12:07:26.748Z,6.20
2019-05-21T12:09:52.722Z,6.90
2019-05-21T12:12:18.668Z,7.03
2019-05-21T12:14:44.750Z,6.92
2019-05-21T12:17:10.701Z,6.78
2019-05-21T12:19:36.991Z,7.00
2019-05-21T12:22:03.264Z,6.60
2019-05-21T12:24:29.395Z,7.50
2019-05-21T12:26:55.360Z,6.70
2019-05-21T12:29:21.285Z,6.30
2019-05-21T12:31:47.310Z,6.73
2019-05-21T12:34:13.272Z,6.60
2019-05-21T12:36:40.288Z,6.55
2019-05-21T12:39:14.071Z,6.08
2019-05-21T12:41:34.924Z,6.83
2019-05-21T12:44:01.137Z,6.22
2019-05-21T12:46:27.086Z,5.80
2019-05-21T12:48:53.159Z,5.53
2019-05-21T12:51:19.404Z,5.00
2019-05-21T12:53:45.463Z,5.60
2019-05-21T12:56:11.498Z,5.17
2019-05-21T12:58:37.726Z,4.87
2019-05-21T13:01:04.193Z,4.70
2019-05-21T13:03:30.118Z,4.70
2019-05-21T13:05:56.064Z,5.13
2019-05-21T13:08:22.425Z,4.47
2019-05-21T13:10:48.371Z,4.70
2019-05-21T13:13:14.450Z,4.37
2019-05-21T13:15:40.678Z,4.13
2019-05-21T13:18:07.007Z,4.70
2019-05-21T13:20:33.041Z,4.53
2019-05-21T13:22:59.098Z,5.23
2019-05-21T13:25:25.137Z,4.20
2019-05-21T13:27:51.227Z,4.80
2019-05-21T13:30:18.160Z,4.40
2019-05-21T13:32:44.243Z,4.23
2019-05-21T13:35:10.726Z,4.10
2019-05-21T13:37:36.787Z,4.10
2019-05-21T13:40:07.607Z,4.00
2019-05-21T13:42:33.652Z,3.73
2019-05-21T13:44:59.720Z,4.10
2019-05-21T13:47:25.807Z,3.50
2019-05-21T13:50:13.301Z,3.27
2019-05-21T13:53:00.011Z,3.37
2019-05-21T13:55:49.245Z,3.23
2019-05-21T13:58:38.597Z,3.20
2019-05-21T14:01:41.650Z,3.50
2019-05-21T14:04:54.302Z,3.00
2019-05-21T14:07:46.392Z,3.13
2019-05-21T14:10:22.090Z,3.37
2019-05-21T14:12:57.741Z,2.87
2019-05-21T14:15:42.946Z,2.93
2019-05-21T14:18:34.745Z,6.37
2019-05-21T14:21:25.141Z,4.43
2019-05-21T14:24:21.367Z,4.00
2019-05-21T14:27:17.650Z,5.67
2019-05-21T14:30:14.964Z,5.40
2019-05-21T14:33:11.142Z,3.80
2019-05-21T14:36:00.100Z,3.90
2019-05-21T14:38:42.459Z,3.97
2019-05-21T14:41:38.746Z,3.20
2019-05-21T14:44:28.009Z,3.07
2019-05-21T14:47:13.950Z,3.20
2019-05-21T14:50:10.527Z,2.80
2019-05-21T14:53:17.477Z,3.10
2019-05-21T15:02:37.439Z,3.33
2019-05-21T15:05:37.002Z,3.10
2019-05-21T15:08:37.758Z,3.03
2019-05-21T15:11:31.936Z,3.53
2019-05-21T15:14:36.312Z,3.80
2019-05-21T15:17:40.307Z,3.53
2019-05-21T15:20:44.742Z,3.80
2019-05-21T15:23:38.522Z,4.33
2019-05-21T15:26:35.115Z,3.97
2019-05-21T15:29:28.362Z,4.40
2019-05-21T15:31:58.879Z,4.33
2019-05-21T15:34:24.911Z,4.60
2019-05-21T15:36:51.021Z,4.50
2019-05-21T15:39:17.212Z,4.80
2019-05-21T15:41:43.398Z,4.17
2019-05-21T15:44:09.479Z,4.17
2019-05-21T15:46:47.925Z,4.27
2019-05-21T15:49:03.720Z,4.23
2019-05-21T15:51:29.770Z,3.70
2019-05-21T15:53:56.076Z,4.03
2019-05-21T15:56:22.207Z,4.10
2019-05-21T15:58:48.260Z,6.20
2019-05-21T16:01:14.324Z,4.40
2019-05-21T16:03:40.317Z,4.50
2019-05-21T16:06:06.550Z,4.37
2019-05-21T16:08:32.640Z,4.57
2019-05-21T16:10:58.710Z,4.70
2019-05-21T16:13:25.027Z,4.90
2019-05-21T16:15:51.383Z,4.97
2019-05-21T16:18:17.365Z,4.37
2019-05-21T16:20:43.440Z,4.40
2019-05-21T16:23:09.694Z,6.27
2019-05-21T16:25:35.733Z,4.80
2019-05-21T16:28:02.101Z,4.30
2019-05-21T16:30:28.261Z,4.53
2019-05-21T16:32:54.689Z,4.10
2019-05-21T16:35:21.328Z,3.77
2019-05-21T16:37:47.259Z,3.80
2019-05-21T16:40:13.645Z,4.07
2019-05-21T16:42:40.001Z,3.60
2019-05-21T16:45:09.261Z,3.60
2019-05-21T16:47:45.578Z,3.60
2019-05-21T16:50:05.519Z,3.30
2019-05-21T16:52:31.750Z,3.20
2019-05-21T16:54:57.916Z,3.47
2019-05-21T16:57:23.955Z,3.23
2019-05-21T16:59:50.151Z,3.27
2019-05-21T17:02:17.143Z,3.00
2019-05-21T17:04:43.223Z,3.30
2019-05-21T17:07:09.179Z,2.83
2019-05-21T17:09:35.362Z,3.50
2019-05-21T17:12:01.412Z,3.00
2019-05-21T17:14:27.538Z,3.07
2019-05-21T17:16:53.856Z,3.03
2019-05-21T17:19:19.974Z,2.80
2019-05-21T17:21:46.032Z,2.50
2019-05-21T17:24:12.676Z,2.40
2019-05-21T17:26:42.609Z,2.40
2019-05-21T17:29:07.679Z,2.40
2019-05-21T17:31:33.748Z,2.00
2019-05-21T17:33:59.825Z,2.20
2019-05-21T17:36:26.035Z,1.93
2019-05-21T17:38:52.009Z,1.97
2019-05-21T17:41:18.085Z,1.90
2019-05-21T17:43:44.213Z,1.90
2019-05-21T17:46:10.272Z,2.10
2019-05-21T17:48:36.610Z,1.80
2019-05-21T17:51:02.987Z,1.83
2019-05-21T17:53:29.470Z,2.07
2019-05-21T17:55:55.436Z,2.40
2019-05-21T17:58:21.479Z,2.10
2019-05-21T18:00:47.816Z,2.07
2019-05-21T18:03:15.149Z,2.40
2019-05-21T18:05:41.287Z,2.53
2019-05-21T18:08:08.827Z,2.47
2019-05-21T18:10:35.241Z,3.47
2019-05-21T18:13:01.272Z,3.30
2019-05-21T18:15:27.644Z,3.27
2019-05-21T18:17:53.709Z,4.33
2019-05-21T18:20:20.881Z,5.00
2019-05-21T18:22:47.436Z,6.07
2019-05-21T18:25:14.262Z,6.00
2019-05-21T18:27:40.797Z,6.57
2019-05-21T18:30:07.710Z,7.00
2019-05-21T18:32:35.846Z,7.97
2019-05-21T18:35:04.289Z,8.37
2019-05-21T18:37:30.760Z,8.60
2019-05-21T18:39:56.994Z,8.13
2019-05-21T18:42:24.345Z,8.57
2019-05-21T18:44:50.739Z,9.00
2019-05-21T18:47:16.860Z,9.10
2019-05-21T18:49:43.285Z,8.43
2019-05-21T18:52:09.521Z,8.47
2019-05-21T18:54:35.670Z,8.30
2019-05-21T18:57:02.081Z,8.30
2019-05-21T18:59:28.412Z,8.97
2019-05-21T19:01:54.535Z,8.83
2019-05-21T19:04:20.956Z,9.17
2019-05-21T19:06:48.729Z,8.47
2019-05-21T19:09:15.114Z,9.00
2019-05-21T19:11:41.800Z,9.10
2019-05-21T19:14:07.917Z,9.50
2019-05-21T19:16:34.101Z,9.33
2019-05-21T19:19:00.192Z,9.60
2019-05-21T19:21:26.259Z,8.87
2019-05-21T19:23:53.076Z,9.17
2019-05-21T19:26:19.171Z,9.00
2019-05-21T19:28:45.393Z,8.87
2019-05-21T19:31:11.722Z,8.83
2019-05-21T19:33:37.711Z,8.93
2019-05-21T19:36:04.078Z,8.43
2019-05-21T19:38:30.047Z,9.37
2019-05-21T19:40:56.133Z,9.50
2019-05-21T19:43:22.555Z,8.97
2019-05-21T19:45:48.682Z,9.93
2019-05-21T19:48:14.815Z,9.10
2019-05-21T19:50:41.366Z,9.40
2019-05-21T19:53:07.470Z,9.60
2019-05-21T19:55:33.902Z,9.27
2019-05-21T19:58:01.255Z,8.97
2019-05-21T20:00:28.674Z,9.57
2019-05-21T20:02:55.043Z,8.93
2019-05-21T20:05:22.161Z,9.53
2019-05-21T20:07:48.650Z,9.03
2019-05-21T20:10:14.984Z,10.47
2019-05-21T20:12:40.971Z,10.13
2019-05-21T20:15:07.671Z,10.90
2019-05-21T20:17:34.055Z,11.10
2019-05-21T20:20:00.208Z,10.30
2019-05-21T20:22:26.542Z,10.33
2019-05-21T20:24:52.790Z,10.73
2019-05-21T20:27:19.293Z,10.17
2019-05-21T20:29:45.879Z,10.40
2019-05-21T20:32:12.121Z,10.27
2019-05-21T20:34:38.490Z,11.20
2019-05-21T20:37:05.139Z,11.03
2019-05-21T20:39:31.549Z,10.73
2019-05-21T20:41:57.681Z,10.53
2019-05-21T20:44:23.667Z,10.50
2019-05-21T20:46:49.896Z,11.33
2019-05-21T20:49:16.415Z,11.23
2019-05-21T20:51:43.713Z,12.43
2019-05-21T20:54:10.848Z,11.67
2019-05-21T20:56:37.149Z,12.37
2019-05-21T20:59:03.830Z,11.47
2019-05-21T21:01:30.951Z,12.30
2019-05-21T21:03:57.516Z,12.33
2019-05-21T21:06:34.986Z,12.10
2019-05-21T21:08:52.700Z,13.00
2019-05-21T21:11:19.140Z,12.47
2019-05-21T21:13:46.394Z,12.20
2019-05-21T21:16:13.806Z,11.63
2019-05-21T21:18:40.016Z,11.90
2019-05-21T21:21:06.308Z,12.33
2019-05-21T21:23:33.906Z,11.17
2019-05-21T21:25:59.940Z,12.07
2019-05-21T21:28:26.352Z,12.47
2019-05-21T21:30:52.685Z,12.73
2019-05-21T21:33:19.040Z,11.83
2019-05-21T21:35:45.150Z,12.03
2019-05-21T21:38:11.977Z,12.67
2019-05-21T21:40:38.066Z,12.37
2019-05-21T21:43:07.786Z,12.03
2019-05-21T21:45:32.286Z,11.67
2019-05-21T21:47:59.031Z,13.10
2019-05-21T21:50:25.398Z,12.47
2019-05-21T21:52:51.733Z,12.40
2019-05-21T21:55:18.397Z,12.27
2019-05-21T21:57:44.431Z,12.60
2019-05-21T22:00:30.506Z,13.03
2019-05-21T22:03:00.723Z,11.77
2019-05-21T22:05:27.444Z,13.07
2019-05-21T22:07:53.795Z,12.80
2019-05-21T22:10:20.328Z,11.93
2019-05-21T22:12:46.536Z,12.13
2019-05-21T22:15:13.174Z,11.73
2019-05-21T22:17:39.207Z,11.77
2019-05-21T22:20:05.834Z,11.80
2019-05-21T22:22:32.034Z,10.83
2019-05-21T22:24:58.292Z,11.10
2019-05-21T22:27:24.390Z,11.37
2019-05-21T22:29:51.064Z,9.77
2019-05-21T22:32:17.104Z,11.80
2019-05-21T22:34:43.330Z,11.13
2019-05-21T22:37:10.460Z,11.70
2019-05-21T22:39:36.656Z,11.40
2019-05-21T22:42:02.730Z,11.43
2019-05-21T22:44:28.910Z,11.50
2019-05-21T22:46:54.856Z,11.20
2019-05-21T22:49:21.105Z,12.40
2019-05-21T22:51:47.391Z,12.27
2019-05-21T22:54:13.563Z,12.13
2019-05-21T22:56:39.833Z,11.23
2019-05-21T22:59:05.875Z,11.90
2019-05-21T23:01:32.055Z,11.27
2019-05-21T23:03:58.023Z,12.10
2019-05-21T23:06:24.347Z,12.43
2019-05-21T23:08:50.779Z,13.90
2019-05-21T23:11:16.743Z,14.07
2019-05-21T23:13:42.765Z,12.80
2019-05-21T23:16:09.294Z,13.83
2019-05-21T23:18:52.479Z,13.37
2019-05-21T23:21:23.419Z,13.93
2019-05-21T23:23:49.474Z,13.60
2019-05-21T23:26:16.448Z,14.07
2019-05-21T23:28:42.558Z,13.60
2019-05-21T23:31:08.550Z,13.70
2019-05-21T23:33:34.691Z,15.60
2019-05-21T23:36:01.686Z,13.73
2019-05-21T23:38:28.503Z,14.70
2019-05-21T23:40:54.596Z,13.57
2019-05-21T23:43:20.756Z,13.57
2019-05-21T23:45:47.024Z,13.70
2019-05-21T23:48:12.961Z,15.03
2019-05-21T23:50:39.066Z,14.60
2019-05-21T23:53:05.317Z,15.03
2019-05-21T23:55:31.775Z,14.43
2019-05-21T23:57:57.821Z,14.93
